sensor_id;sensor_type;location;lat;lon;timestamp;pressure;altitude;pressure_sealevel;temperature;humidity
1726;BME280;41776;48.260;8.928;2023-03-03T00:01:09;52575.09;;;-145.69;100.00
1726;BME280;41776;48.260;8.928;2023-03-03T00:03:35;52608.75;;;-145.69;100.00
1726;BME280;41776;48.260;8.928;2023-03-03T00:06:04;52594.91;;;-145.69;100.00
1726;BME280;41776;48.260;8.928;2023-03-03T00:08:30;52571.13;;;-145.69;100.00
1726;BME280;41776;48.260;8.928;2023-03-03T00:10:59;52622.63;;;-145.69;100.00
1726;BME280;41776;48.260;8.928;2023-03-03T00:13:28;52606.78;;;-145.69;100.00
1726;BME280;41776;48.260;8.928;2023-03-03T00:16:12;52606.78;;;-145.69;100.00
1726;BME280;41776;48.260;8.928;2023-03-03T00:18:41;52575.09;;;-145.69;100.00
1726;BME280;41776;48.260;8.928;2023-03-03T00:21:22;52559.25;;;-145.69;100.00
1726;BME280;41776;48.260;8.928;2023-03-03T00:23:51;52602.81;;;-145.69;100.00
1726;BME280;41776;48.260;8.928;2023-03-03T00:26:21;52598.84;;;-145.69;100.00
1726;BME280;41776;48.260;8.928;2023-03-03T00:28:50;52620.66;;;-145.69;100.00
1726;BME280;41776;48.260;8.928;2023-03-03T00:31:19;52602.81;;;-145.69;100.00
1726;BME280;41776;48.260;8.928;2023-03-03T00:33:48;52636.50;;;-145.69;100.00
1726;BME280;41776;48.260;8.928;2023-03-03T00:36:29;52626.59;;;-145.69;100.00
1726;BME280;41776;48.260;8.928;2023-03-03T00:39:16;52571.13;;;-145.69;100.00
1726;BME280;41776;48.260;8.928;2023-03-03T00:41:44;52612.72;;;-145.69;100.00
1726;BME280;41776;48.260;8.928;2023-03-03T00:44:39;52602.81;;;-145.69;100.00
1726;BME280;41776;48.260;8.928;2023-03-03T00:47:25;52586.97;;;-145.69;100.00
1726;BME280;41776;48.260;8.928;2023-03-03T00:49:52;52616.69;;;-145.69;100.00
1726;BME280;41776;48.260;8.928;2023-03-03T00:52:21;52608.75;;;-145.69;100.00
1726;BME280;41776;48.260;8.928;2023-03-03T00:54:49;52590.94;;;-145.69;100.00
1726;BME280;41776;48.260;8.928;2023-03-03T00:57:17;52610.75;;;-145.69;100.00
1726;BME280;41776;48.260;8.928;2023-03-03T00:59:44;52606.78;;;-145.69;100.00
1726;BME280;41776;48.260;8.928;2023-03-03T01:02:13;52598.84;;;-145.69;100.00
1726;BME280;41776;48.260;8.928;2023-03-03T01:04:40;52598.84;;;-145.69;100.00
1726;BME280;41776;48.260;8.928;2023-03-03T01:07:09;52614.72;;;-145.69;100.00
1726;BME280;41776;48.260;8.928;2023-03-03T01:09:35;52590.94;;;-145.69;100.00
1726;BME280;41776;48.260;8.928;2023-03-03T01:12:02;52598.84;;;-145.69;100.00
1726;BME280;41776;48.260;8.928;2023-03-03T01:14:30;52614.72;;;-145.69;100.00
1726;BME280;41776;48.260;8.928;2023-03-03T01:16:57;52604.81;;;-145.69;100.00
1726;BME280;41776;48.260;8.928;2023-03-03T01:19:23;52586.97;;;-145.69;100.00
1726;BME280;41776;48.260;8.928;2023-03-03T01:21:50;52583.00;;;-145.69;100.00
1726;BME280;41776;48.260;8.928;2023-03-03T01:24:16;52600.84;;;-145.69;100.00
1726;BME280;41776;48.260;8.928;2023-03-03T01:26:43;52577.06;;;-145.69;100.00
1726;BME280;41776;48.260;8.928;2023-03-03T01:29:09;52598.84;;;-145.69;100.00
1726;BME280;41776;48.260;8.928;2023-03-03T01:31:39;52586.97;;;-145.69;100.00
1726;BME280;41776;48.260;8.928;2023-03-03T01:34:05;52606.78;;;-145.69;100.00
1726;BME280;41776;48.260;8.928;2023-03-03T01:36:32;52590.94;;;-145.69;100.00
1726;BME280;41776;48.260;8.928;2023-03-03T01:38:59;52586.97;;;-145.69;100.00
1726;BME280;41776;48.260;8.928;2023-03-03T01:41:26;52602.81;;;-145.69;100.00
1726;BME280;41776;48.260;8.928;2023-03-03T01:43:54;52598.84;;;-145.69;100.00
1726;BME280;41776;48.260;8.928;2023-03-03T01:46:31;52585.00;;;-145.69;100.00
1726;BME280;41776;48.260;8.928;2023-03-03T01:49:05;52600.84;;;-145.69;100.00
1726;BME280;41776;48.260;8.928;2023-03-03T01:51:37;52600.84;;;-145.69;100.00
1726;BME280;41776;48.260;8.928;2023-03-03T01:54:17;52577.06;;;-145.69;100.00
1726;BME280;41776;48.260;8.928;2023-03-03T01:56:47;52583.00;;;-145.69;100.00
1726;BME280;41776;48.260;8.928;2023-03-03T01:59:20;52592.91;;;-145.69;100.00
1726;BME280;41776;48.260;8.928;2023-03-03T02:01:52;52606.78;;;-145.69;100.00
1726;BME280;41776;48.260;8.928;2023-03-03T02:04:20;52586.97;;;-145.69;100.00
1726;BME280;41776;48.260;8.928;2023-03-03T02:06:52;52606.78;;;-145.69;100.00
1726;BME280;41776;48.260;8.928;2023-03-03T02:09:26;52606.78;;;-145.69;100.00
1726;BME280;41776;48.260;8.928;2023-03-03T02:12:09;52600.84;;;-145.69;100.00
1726;BME280;41776;48.260;8.928;2023-03-03T02:14:36;52610.75;;;-145.69;100.00
1726;BME280;41776;48.260;8.928;2023-03-03T02:17:07;52594.91;;;-145.69;100.00
1726;BME280;41776;48.260;8.928;2023-03-03T02:19:42;52551.31;;;-145.69;100.00
1726;BME280;41776;48.260;8.928;2023-03-03T02:22:14;52581.03;;;-145.69;100.00
1726;BME280;41776;48.260;8.928;2023-03-03T02:24:48;52610.75;;;-145.69;100.00
1726;BME280;41776;48.260;8.928;2023-03-03T02:27:19;52598.84;;;-145.69;100.00
1726;BME280;41776;48.260;8.928;2023-03-03T02:29:46;52626.59;;;-145.69;100.00
1726;BME280;41776;48.260;8.928;2023-03-03T02:32:14;52590.94;;;-145.69;100.00
1726;BME280;41776;48.260;8.928;2023-03-03T02:34:45;52608.75;;;-145.69;100.00
1726;BME280;41776;48.260;8.928;2023-03-03T02:37:14;52614.72;;;-145.69;100.00
1726;BME280;41776;48.260;8.928;2023-03-03T02:39:41;52618.66;;;-145.69;100.00
1726;BME280;41776;48.260;8.928;2023-03-03T02:42:12;52590.94;;;-145.69;100.00
1726;BME280;41776;48.260;8.928;2023-03-03T02:44:42;52575.09;;;-145.69;100.00
1726;BME280;41776;48.260;8.928;2023-03-03T02:47:10;52583.00;;;-145.69;100.00
1726;BME280;41776;48.260;8.928;2023-03-03T02:49:42;52590.94;;;-145.69;100.00
1726;BME280;41776;48.260;8.928;2023-03-03T02:52:12;52600.84;;;-145.69;100.00
1726;BME280;41776;48.260;8.928;2023-03-03T02:54:42;52626.59;;;-145.69;100.00
1726;BME280;41776;48.260;8.928;2023-03-03T02:57:08;52624.59;;;-145.69;100.00
1726;BME280;41776;48.260;8.928;2023-03-03T02:59:37;52590.94;;;-145.69;100.00
1726;BME280;41776;48.260;8.928;2023-03-03T03:02:05;52604.81;;;-145.69;100.00
1726;BME280;41776;48.260;8.928;2023-03-03T03:04:33;52610.75;;;-145.69;100.00
1726;BME280;41776;48.260;8.928;2023-03-03T03:07:02;52622.63;;;-145.69;100.00
1726;BME280;41776;48.260;8.928;2023-03-03T03:09:29;52622.63;;;-145.69;100.00
1726;BME280;41776;48.260;8.928;2023-03-03T03:11:55;52636.50;;;-145.69;100.00
1726;BME280;41776;48.260;8.928;2023-03-03T03:14:28;52579.06;;;-145.69;100.00
1726;BME280;41776;48.260;8.928;2023-03-03T03:16:55;52590.94;;;-145.69;100.00
1726;BME280;41776;48.260;8.928;2023-03-03T03:19:34;52602.81;;;-145.69;100.00
1726;BME280;41776;48.260;8.928;2023-03-03T03:22:03;52620.66;;;-145.69;100.00
1726;BME280;41776;48.260;8.928;2023-03-03T03:24:29;52583.00;;;-145.69;100.00
1726;BME280;41776;48.260;8.928;2023-03-03T03:26:56;52610.75;;;-145.69;100.00
1726;BME280;41776;48.260;8.928;2023-03-03T03:29:22;52586.97;;;-145.69;100.00
1726;BME280;41776;48.260;8.928;2023-03-03T03:31:51;52579.06;;;-145.69;100.00
1726;BME280;41776;48.260;8.928;2023-03-03T03:34:20;52586.97;;;-145.69;100.00
1726;BME280;41776;48.260;8.928;2023-03-03T03:36:48;52622.63;;;-145.69;100.00
1726;BME280;41776;48.260;8.928;2023-03-03T03:39:14;52598.84;;;-145.69;100.00
1726;BME280;41776;48.260;8.928;2023-03-03T03:41:41;52575.09;;;-145.69;100.00
1726;BME280;41776;48.260;8.928;2023-03-03T03:44:10;52634.50;;;-145.69;100.00
1726;BME280;41776;48.260;8.928;2023-03-03T03:46:36;52586.97;;;-145.69;100.00
1726;BME280;41776;48.260;8.928;2023-03-03T03:49:03;52602.81;;;-145.69;100.00
1726;BME280;41776;48.260;8.928;2023-03-03T03:51:29;52590.94;;;-145.69;100.00
1726;BME280;41776;48.260;8.928;2023-03-03T03:54:11;52577.06;;;-145.69;100.00
1726;BME280;41776;48.260;8.928;2023-03-03T03:56:38;52614.72;;;-145.69;100.00
1726;BME280;41776;48.260;8.928;2023-03-03T03:59:05;52592.91;;;-145.69;100.00
1726;BME280;41776;48.260;8.928;2023-03-03T04:01:33;52588.97;;;-145.69;100.00
1726;BME280;41776;48.260;8.928;2023-03-03T04:03:59;52606.78;;;-145.69;100.00
1726;BME280;41776;48.260;8.928;2023-03-03T04:06:27;52571.13;;;-145.69;100.00
1726;BME280;41776;48.260;8.928;2023-03-03T04:08:53;52563.22;;;-145.69;100.00
1726;BME280;41776;48.260;8.928;2023-03-03T04:11:24;52583.00;;;-145.69;100.00
1726;BME280;41776;48.260;8.928;2023-03-03T04:13:51;52602.81;;;-145.69;100.00
1726;BME280;41776;48.260;8.928;2023-03-03T04:16:20;52590.94;;;-145.69;100.00
1726;BME280;41776;48.260;8.928;2023-03-03T04:18:47;52602.81;;;-145.69;100.00
1726;BME280;41776;48.260;8.928;2023-03-03T04:21:14;52567.16;;;-145.69;100.00
1726;BME280;41776;48.260;8.928;2023-03-03T04:23:41;52622.63;;;-145.69;100.00
1726;BME280;41776;48.260;8.928;2023-03-03T04:26:08;52614.72;;;-145.69;100.00
1726;BME280;41776;48.260;8.928;2023-03-03T04:28:36;52598.84;;;-145.69;100.00
1726;BME280;41776;48.260;8.928;2023-03-03T04:31:03;52577.06;;;-145.69;100.00
1726;BME280;41776;48.260;8.928;2023-03-03T04:33:29;52606.78;;;-145.69;100.00
1726;BME280;41776;48.260;8.928;2023-03-03T04:35:56;52598.84;;;-145.69;100.00
1726;BME280;41776;48.260;8.928;2023-03-03T04:38:23;52652.34;;;-145.69;100.00
1726;BME280;41776;48.260;8.928;2023-03-03T04:40:50;52614.72;;;-145.69;100.00
1726;BME280;41776;48.260;8.928;2023-03-03T04:43:17;52586.97;;;-145.69;100.00
1726;BME280;41776;48.260;8.928;2023-03-03T04:45:44;52618.66;;;-145.69;100.00
1726;BME280;41776;48.260;8.928;2023-03-03T04:48:11;52622.63;;;-145.69;100.00
1726;BME280;41776;48.260;8.928;2023-03-03T04:50:40;52604.81;;;-145.69;100.00
1726;BME280;41776;48.260;8.928;2023-03-03T04:53:07;52606.78;;;-145.69;100.00
1726;BME280;41776;48.260;8.928;2023-03-03T04:55:35;52638.47;;;-145.69;100.00
1726;BME280;41776;48.260;8.928;2023-03-03T04:58:02;52610.75;;;-145.69;100.00
1726;BME280;41776;48.260;8.928;2023-03-03T05:00:29;52612.72;;;-145.69;100.00
1726;BME280;41776;48.260;8.928;2023-03-03T05:02:57;52630.53;;;-145.69;100.00
1726;BME280;41776;48.260;8.928;2023-03-03T05:05:23;52567.16;;;-145.69;100.00
1726;BME280;41776;48.260;8.928;2023-03-03T05:07:50;52616.69;;;-145.69;100.00
1726;BME280;41776;48.260;8.928;2023-03-03T05:10:16;52606.78;;;-145.69;100.00
1726;BME280;41776;48.260;8.928;2023-03-03T05:12:43;52579.06;;;-145.69;100.00
1726;BME280;41776;48.260;8.928;2023-03-03T05:15:10;52612.72;;;-145.69;100.00
1726;BME280;41776;48.260;8.928;2023-03-03T05:17:36;52557.28;;;-145.69;100.00
1726;BME280;41776;48.260;8.928;2023-03-03T05:20:05;52583.00;;;-145.69;100.00
1726;BME280;41776;48.260;8.928;2023-03-03T05:22:34;52590.94;;;-145.69;100.00
1726;BME280;41776;48.260;8.928;2023-03-03T05:25:01;52585.00;;;-145.69;100.00
1726;BME280;41776;48.260;8.928;2023-03-03T05:27:27;52614.72;;;-145.69;100.00
1726;BME280;41776;48.260;8.928;2023-03-03T05:29:54;52616.69;;;-145.69;100.00
1726;BME280;41776;48.260;8.928;2023-03-03T05:32:21;52602.81;;;-145.69;100.00
1726;BME280;41776;48.260;8.928;2023-03-03T05:34:47;52588.97;;;-145.69;100.00
1726;BME280;41776;48.260;8.928;2023-03-03T05:37:16;52624.59;;;-145.69;100.00
1726;BME280;41776;48.260;8.928;2023-03-03T05:39:42;52614.72;;;-145.69;100.00
1726;BME280;41776;48.260;8.928;2023-03-03T05:42:10;52598.84;;;-145.69;100.00
1726;BME280;41776;48.260;8.928;2023-03-03T05:44:37;52598.84;;;-145.69;100.00
1726;BME280;41776;48.260;8.928;2023-03-03T05:47:04;52616.69;;;-145.69;100.00
1726;BME280;41776;48.260;8.928;2023-03-03T05:49:30;52610.75;;;-145.69;100.00
1726;BME280;41776;48.260;8.928;2023-03-03T05:51:57;52630.53;;;-145.69;100.00
1726;BME280;41776;48.260;8.928;2023-03-03T05:54:25;52608.75;;;-145.69;100.00
1726;BME280;41776;48.260;8.928;2023-03-03T05:56:51;52618.66;;;-145.69;100.00
1726;BME280;41776;48.260;8.928;2023-03-03T05:59:18;52630.53;;;-145.69;100.00
1726;BME280;41776;48.260;8.928;2023-03-03T06:01:44;52618.66;;;-145.69;100.00
1726;BME280;41776;48.260;8.928;2023-03-03T06:04:11;52618.66;;;-145.69;100.00
1726;BME280;41776;48.260;8.928;2023-03-03T06:06:38;52602.81;;;-145.69;100.00
1726;BME280;41776;48.260;8.928;2023-03-03T06:09:05;52610.75;;;-145.69;100.00
1726;BME280;41776;48.260;8.928;2023-03-03T06:11:33;52594.91;;;-145.69;100.00
1726;BME280;41776;48.260;8.928;2023-03-03T06:13:59;52598.84;;;-145.69;100.00
1726;BME280;41776;48.260;8.928;2023-03-03T06:16:26;52618.66;;;-145.69;100.00
1726;BME280;41776;48.260;8.928;2023-03-03T06:18:53;52579.06;;;-145.69;100.00
1726;BME280;41776;48.260;8.928;2023-03-03T06:21:19;52575.09;;;-145.69;100.00
1726;BME280;41776;48.260;8.928;2023-03-03T06:23:46;52596.88;;;-145.69;100.00
1726;BME280;41776;48.260;8.928;2023-03-03T06:26:12;52575.09;;;-145.69;100.00
1726;BME280;41776;48.260;8.928;2023-03-03T06:28:40;52590.94;;;-145.69;100.00
1726;BME280;41776;48.260;8.928;2023-03-03T06:31:07;52598.84;;;-145.69;100.00
1726;BME280;41776;48.260;8.928;2023-03-03T06:33:33;52610.75;;;-145.69;100.00
1726;BME280;41776;48.260;8.928;2023-03-03T06:36:00;52634.50;;;-145.69;100.00
1726;BME280;41776;48.260;8.928;2023-03-03T06:38:26;52604.81;;;-145.69;100.00
1726;BME280;41776;48.260;8.928;2023-03-03T06:40:53;52585.00;;;-145.69;100.00
1726;BME280;41776;48.260;8.928;2023-03-03T06:43:19;52604.81;;;-145.69;100.00
1726;BME280;41776;48.260;8.928;2023-03-03T06:45:47;52604.81;;;-145.69;100.00
1726;BME280;41776;48.260;8.928;2023-03-03T06:48:14;52608.75;;;-145.69;100.00
1726;BME280;41776;48.260;8.928;2023-03-03T06:50:40;52628.56;;;-145.69;100.00
1726;BME280;41776;48.260;8.928;2023-03-03T06:53:10;52608.75;;;-145.69;100.00
1726;BME280;41776;48.260;8.928;2023-03-03T06:55:38;52590.94;;;-145.69;100.00
1726;BME280;41776;48.260;8.928;2023-03-03T06:58:10;52598.84;;;-145.69;100.00
1726;BME280;41776;48.260;8.928;2023-03-03T07:00:40;52610.75;;;-145.69;100.00
1726;BME280;41776;48.260;8.928;2023-03-03T07:03:13;52569.16;;;-145.69;100.00
1726;BME280;41776;48.260;8.928;2023-03-03T07:05:41;52596.88;;;-145.69;100.00
1726;BME280;41776;48.260;8.928;2023-03-03T07:08:12;52592.91;;;-145.69;100.00
1726;BME280;41776;48.260;8.928;2023-03-03T07:10:39;52606.78;;;-145.69;100.00
1726;BME280;41776;48.260;8.928;2023-03-03T07:13:16;52579.06;;;-145.69;100.00
1726;BME280;41776;48.260;8.928;2023-03-03T07:15:43;52608.75;;;-145.69;100.00
1726;BME280;41776;48.260;8.928;2023-03-03T07:18:28;52588.97;;;-145.69;100.00
1726;BME280;41776;48.260;8.928;2023-03-03T07:21:05;52590.94;;;-145.69;100.00
1726;BME280;41776;48.260;8.928;2023-03-03T07:23:38;52539.44;;;-145.69;100.00
1726;BME280;41776;48.260;8.928;2023-03-03T07:26:07;52575.09;;;-145.69;100.00
1726;BME280;41776;48.260;8.928;2023-03-03T07:28:34;52610.75;;;-145.69;100.00
1726;BME280;41776;48.260;8.928;2023-03-03T07:31:00;52575.09;;;-145.69;100.00
1726;BME280;41776;48.260;8.928;2023-03-03T07:33:30;52573.13;;;-145.69;100.00
1726;BME280;41776;48.260;8.928;2023-03-03T07:36:02;52598.84;;;-145.69;100.00
1726;BME280;41776;48.260;8.928;2023-03-03T07:38:33;52577.06;;;-145.69;100.00
1726;BME280;41776;48.260;8.928;2023-03-03T07:41:02;52573.13;;;-145.69;100.00
1726;BME280;41776;48.260;8.928;2023-03-03T07:43:33;52583.00;;;-145.69;100.00
1726;BME280;41776;48.260;8.928;2023-03-03T07:46:05;52565.19;;;-145.69;100.00
1726;BME280;41776;48.260;8.928;2023-03-03T07:48:41;52604.81;;;-145.69;100.00
1726;BME280;41776;48.260;8.928;2023-03-03T07:51:12;52571.13;;;-145.69;100.00
1726;BME280;41776;48.260;8.928;2023-03-03T07:53:41;52592.91;;;-145.69;100.00
1726;BME280;41776;48.260;8.928;2023-03-03T07:56:16;52579.06;;;-145.69;100.00
1726;BME280;41776;48.260;8.928;2023-03-03T07:58:46;52590.94;;;-145.69;100.00
1726;BME280;41776;48.260;8.928;2023-03-03T08:01:34;52569.16;;;-145.69;100.00
1726;BME280;41776;48.260;8.928;2023-03-03T08:04:10;52594.91;;;-145.69;100.00
1726;BME280;41776;48.260;8.928;2023-03-03T08:06:45;52571.13;;;-145.69;100.00
1726;BME280;41776;48.260;8.928;2023-03-03T08:09:34;52586.97;;;-145.69;100.00
1726;BME280;41776;48.260;8.928;2023-03-03T08:15:11;52614.72;;;-145.69;100.00
1726;BME280;41776;48.260;8.928;2023-03-03T08:17:41;52555.28;;;-145.69;100.00
1726;BME280;41776;48.260;8.928;2023-03-03T08:23:07;52559.25;;;-145.69;100.00
1726;BME280;41776;48.260;8.928;2023-03-03T08:25:33;52571.13;;;-145.69;100.00
1726;BME280;41776;48.260;8.928;2023-03-03T08:28:00;52563.22;;;-145.69;100.00
1726;BME280;41776;48.260;8.928;2023-03-03T08:30:26;52579.06;;;-145.69;100.00
1726;BME280;41776;48.260;8.928;2023-03-03T08:32:53;52547.38;;;-145.69;100.00
1726;BME280;41776;48.260;8.928;2023-03-03T08:35:19;52569.16;;;-145.69;100.00
1726;BME280;41776;48.260;8.928;2023-03-03T08:37:46;52565.19;;;-145.69;100.00
1726;BME280;41776;48.260;8.928;2023-03-03T08:40:14;52585.00;;;-145.69;100.00
1726;BME280;41776;48.260;8.928;2023-03-03T08:42:40;52559.25;;;-145.69;100.00
1726;BME280;41776;48.260;8.928;2023-03-03T08:45:07;52583.00;;;-145.69;100.00
1726;BME280;41776;48.260;8.928;2023-03-03T08:47:34;52539.44;;;-145.69;100.00
1726;BME280;41776;48.260;8.928;2023-03-03T08:50:00;52590.94;;;-145.69;100.00
1726;BME280;41776;48.260;8.928;2023-03-03T08:52:27;52579.06;;;-145.69;100.00
1726;BME280;41776;48.260;8.928;2023-03-03T08:54:53;52559.25;;;-145.69;100.00
1726;BME280;41776;48.260;8.928;2023-03-03T08:57:21;52586.97;;;-145.69;100.00
1726;BME280;41776;48.260;8.928;2023-03-03T08:59:48;52571.13;;;-145.69;100.00
1726;BME280;41776;48.260;8.928;2023-03-03T09:02:14;52583.00;;;-145.69;100.00
1726;BME280;41776;48.260;8.928;2023-03-03T09:04:41;52527.56;;;-145.69;100.00
1726;BME280;41776;48.260;8.928;2023-03-03T09:07:08;52567.16;;;-145.69;100.00
1726;BME280;41776;48.260;8.928;2023-03-03T09:09:34;52523.59;;;-145.69;100.00
1726;BME280;41776;48.260;8.928;2023-03-03T09:12:12;52527.56;;;-145.69;100.00
1726;BME280;41776;48.260;8.928;2023-03-03T09:14:41;52551.31;;;-145.69;100.00
1726;BME280;41776;48.260;8.928;2023-03-03T09:17:22;52567.16;;;-145.69;100.00
1726;BME280;41776;48.260;8.928;2023-03-03T09:19:49;52537.47;;;-145.69;100.00
1726;BME280;41776;48.260;8.928;2023-03-03T09:22:18;52547.38;;;-145.69;100.00
1726;BME280;41776;48.260;8.928;2023-03-03T09:24:46;52523.59;;;-145.69;100.00
1726;BME280;41776;48.260;8.928;2023-03-03T09:27:18;52535.47;;;-145.69;100.00
1726;BME280;41776;48.260;8.928;2023-03-03T09:29:46;52531.53;;;-145.69;100.00
1726;BME280;41776;48.260;8.928;2023-03-03T09:32:30;52543.41;;;-145.69;100.00
1726;BME280;41776;48.260;8.928;2023-03-03T09:34:59;52513.69;;;-145.69;100.00
1726;BME280;41776;48.260;8.928;2023-03-03T09:37:27;52517.66;;;-145.69;100.00
1726;BME280;41776;48.260;8.928;2023-03-03T09:39:57;52553.31;;;-145.69;100.00
1726;BME280;41776;48.260;8.928;2023-03-03T09:45:52;52523.59;;;-145.69;100.00
1726;BME280;41776;48.260;8.928;2023-03-03T09:48:33;52547.38;;;-145.69;100.00
1726;BME280;41776;48.260;8.928;2023-03-03T09:51:14;52610.75;;;-145.69;100.00
1726;BME280;41776;48.260;8.928;2023-03-03T09:53:57;52541.44;;;-145.69;100.00
1726;BME280;41776;48.260;8.928;2023-03-03T09:56:31;52543.41;;;-145.69;100.00
1726;BME280;41776;48.260;8.928;2023-03-03T09:59:12;52527.56;;;-145.69;100.00
1726;BME280;41776;48.260;8.928;2023-03-03T10:01:50;52507.75;;;-145.69;100.00
1726;BME280;41776;48.260;8.928;2023-03-03T10:04:42;52531.53;;;-145.69;100.00
1726;BME280;41776;48.260;8.928;2023-03-03T10:07:19;52527.56;;;-145.69;99.55
1726;BME280;41776;48.260;8.928;2023-03-03T10:10:05;52545.38;;;-145.69;100.00
1726;BME280;41776;48.260;8.928;2023-03-03T10:12:43;52519.63;;;-145.69;99.05
1726;BME280;41776;48.260;8.928;2023-03-03T10:15:24;52487.97;;;-145.69;100.00
1726;BME280;41776;48.260;8.928;2023-03-03T10:17:57;52559.25;;;-145.69;100.00
1726;BME280;41776;48.260;8.928;2023-03-03T10:20:37;52561.22;;;-145.69;100.00
1726;BME280;41776;48.260;8.928;2023-03-03T10:23:16;52519.63;;;-145.69;100.00
1726;BME280;41776;48.260;8.928;2023-03-03T10:25:51;52523.59;;;-145.69;100.00
1726;BME280;41776;48.260;8.928;2023-03-03T10:28:29;52543.41;;;-145.69;96.70
1726;BME280;41776;48.260;8.928;2023-03-03T10:31:09;52519.63;;;-145.69;99.26
1726;BME280;41776;48.260;8.928;2023-03-03T10:33:46;52511.72;;;-145.69;96.84
1726;BME280;41776;48.260;8.928;2023-03-03T10:36:27;52543.41;;;-145.69;100.00
1726;BME280;41776;48.260;8.928;2023-03-03T10:39:12;52563.22;;;-145.69;98.55
1726;BME280;41776;48.260;8.928;2023-03-03T10:41:50;52537.47;;;-145.69;97.29
1726;BME280;41776;48.260;8.928;2023-03-03T10:44:29;52543.41;;;-145.69;99.29
1726;BME280;41776;48.260;8.928;2023-03-03T10:47:14;52539.44;;;-145.69;100.00
1726;BME280;41776;48.260;8.928;2023-03-03T10:49:56;52537.47;;;-145.69;100.00
1726;BME280;41776;48.260;8.928;2023-03-03T10:52:32;52523.59;;;-145.69;98.89
1726;BME280;41776;48.260;8.928;2023-03-03T10:55:15;52527.56;;;-145.69;94.63
1726;BME280;41776;48.260;8.928;2023-03-03T10:57:50;52517.66;;;-145.69;95.91
1726;BME280;41776;48.260;8.928;2023-03-03T11:00:22;52511.72;;;-145.69;96.81
1726;BME280;41776;48.260;8.928;2023-03-03T11:03:26;52523.59;;;-145.69;88.69
1726;BME280;41776;48.260;8.928;2023-03-03T11:06:01;52489.94;;;-145.69;93.55
1726;BME280;41776;48.260;8.928;2023-03-03T11:08:35;52491.91;;;-145.69;79.45
1726;BME280;41776;48.260;8.928;2023-03-03T11:11:09;52511.72;;;-145.69;79.90
1726;BME280;41776;48.260;8.928;2023-03-03T11:13:41;52503.81;;;-145.69;81.50
1726;BME280;41776;48.260;8.928;2023-03-03T11:16:33;52505.78;;;-145.69;82.45
1726;BME280;41776;48.260;8.928;2023-03-03T11:19:11;52513.69;;;-145.69;80.54
1726;BME280;41776;48.260;8.928;2023-03-03T11:21:59;52495.88;;;-145.69;85.82
1726;BME280;41776;48.260;8.928;2023-03-03T11:24:47;52519.63;;;-145.69;85.83
1726;BME280;41776;48.260;8.928;2023-03-03T11:27:28;52531.53;;;-145.69;90.64
1726;BME280;41776;48.260;8.928;2023-03-03T11:30:17;52484.00;;;-145.69;89.64
1726;BME280;41776;48.260;8.928;2023-03-03T11:32:56;52515.69;;;-145.69;90.57
1726;BME280;41776;48.260;8.928;2023-03-03T11:35:28;52454.28;;;-145.69;91.23
1726;BME280;41776;48.260;8.928;2023-03-03T11:38:10;52491.91;;;-145.69;90.53
1726;BME280;41776;48.260;8.928;2023-03-03T11:40:46;52485.97;;;-145.69;91.37
1726;BME280;41776;48.260;8.928;2023-03-03T11:43:18;52511.72;;;-145.69;98.85
1726;BME280;41776;48.260;8.928;2023-03-03T11:45:53;52484.00;;;-145.69;91.37
1726;BME280;41776;48.260;8.928;2023-03-03T11:48:26;52489.94;;;-145.69;90.85
1726;BME280;41776;48.260;8.928;2023-03-03T11:51:03;52509.75;;;-145.69;90.30
1726;BME280;41776;48.260;8.928;2023-03-03T11:53:44;52487.97;;;-145.69;87.32
1726;BME280;41776;48.260;8.928;2023-03-03T11:56:21;52482.00;;;-145.69;89.38
1726;BME280;41776;48.260;8.928;2023-03-03T11:58:57;52515.69;;;-145.69;90.24
1726;BME280;41776;48.260;8.928;2023-03-03T12:01:32;52501.81;;;-145.69;91.96
1726;BME280;41776;48.260;8.928;2023-03-03T12:04:02;52513.69;;;-145.69;95.17
1726;BME280;41776;48.260;8.928;2023-03-03T12:06:37;52482.00;;;-145.69;90.17
1726;BME280;41776;48.260;8.928;2023-03-03T12:09:20;52493.91;;;-145.69;88.00
1726;BME280;41776;48.260;8.928;2023-03-03T12:11:53;52507.75;;;-145.69;92.32
1726;BME280;41776;48.260;8.928;2023-03-03T12:14:34;52489.94;;;-145.69;91.31
1726;BME280;41776;48.260;8.928;2023-03-03T12:17:11;52485.97;;;-145.69;86.82
1726;BME280;41776;48.260;8.928;2023-03-03T12:19:47;52507.75;;;-145.69;86.15
1726;BME280;41776;48.260;8.928;2023-03-03T12:22:27;52460.22;;;-145.69;82.72
1726;BME280;41776;48.260;8.928;2023-03-03T12:25:23;52456.28;;;-145.69;81.89
1726;BME280;41776;48.260;8.928;2023-03-03T12:27:57;52468.16;;;-145.69;80.08
1726;BME280;41776;48.260;8.928;2023-03-03T12:30:35;52472.13;;;-145.69;77.13
1726;BME280;41776;48.260;8.928;2023-03-03T12:33:16;52440.44;;;-145.69;73.79
1726;BME280;41776;48.260;8.928;2023-03-03T12:35:50;52468.16;;;-145.69;63.62
1726;BME280;41776;48.260;8.928;2023-03-03T12:38:26;52456.28;;;-145.69;69.69
1726;BME280;41776;48.260;8.928;2023-03-03T12:41:01;52460.22;;;-145.69;66.71
1726;BME280;41776;48.260;8.928;2023-03-03T12:43:43;52476.06;;;-145.69;70.20
1726;BME280;41776;48.260;8.928;2023-03-03T12:46:16;52438.44;;;-145.69;63.17
1726;BME280;41776;48.260;8.928;2023-03-03T12:48:46;52464.19;;;-145.69;64.32
1726;BME280;41776;48.260;8.928;2023-03-03T12:51:26;52484.00;;;-145.69;67.55
1726;BME280;41776;48.260;8.928;2023-03-03T12:54:16;52470.13;;;-145.69;74.48
1726;BME280;41776;48.260;8.928;2023-03-03T12:56:51;52466.16;;;-145.69;69.91
1726;BME280;41776;48.260;8.928;2023-03-03T12:59:21;52444.38;;;-145.69;68.37
1726;BME280;41776;48.260;8.928;2023-03-03T13:02:16;52480.03;;;-145.69;72.65
1726;BME280;41776;48.260;8.928;2023-03-03T13:04:50;52464.19;;;-145.69;69.15
1726;BME280;41776;48.260;8.928;2023-03-03T13:07:26;52511.72;;;-145.69;73.30
1726;BME280;41776;48.260;8.928;2023-03-03T13:10:06;52472.13;;;-145.69;70.00
1726;BME280;41776;48.260;8.928;2023-03-03T13:12:39;52460.22;;;-145.69;70.88
1726;BME280;41776;48.260;8.928;2023-03-03T13:15:12;52487.97;;;-145.69;66.06